createdAt,value
2017-09-04T00:04:42.654Z,81.10
2017-09-04T00:10:10.807Z,80.90
2017-09-04T00:15:38.960Z,81.00
2017-09-04T00:21:08.109Z,80.90
2017-09-04T00:26:36.248Z,80.90
2017-09-04T00:32:04.410Z,80.90
2017-09-04T00:37:32.552Z,81.20
2017-09-04T00:43:00.679Z,80.90
2017-09-04T00:48:28.833Z,80.90
2017-09-04T00:53:56.988Z,81.00
2017-09-04T00:59:25.117Z,81.10
2017-09-04T01:04:53.257Z,81.10
2017-09-04T01:10:21.401Z,81.10
2017-09-04T01:15:49.574Z,81.20
2017-09-04T01:21:17.703Z,81.20
2017-09-04T01:26:45.838Z,81.10
2017-09-04T01:32:13.972Z,81.00
2017-09-04T01:37:42.117Z,80.90
2017-09-04T01:43:13.445Z,81.00
2017-09-04T01:48:41.631Z,80.90
2017-09-04T01:54:09.757Z,81.00
2017-09-04T01:59:37.885Z,81.00
2017-09-04T02:05:07.017Z,81.10
2017-09-04T02:10:35.141Z,81.00
2017-09-04T02:16:03.288Z,81.00
2017-09-04T02:21:31.430Z,81.00
2017-09-04T02:26:59.604Z,81.00
2017-09-04T02:32:27.742Z,81.10
2017-09-04T02:37:55.888Z,81.00
2017-09-04T02:43:24.022Z,81.10
2017-09-04T02:48:52.144Z,81.10
2017-09-04T02:54:20.460Z,81.10
2017-09-04T02:59:48.594Z,81.10
2017-09-04T03:05:16.743Z,80.90
2017-09-04T03:10:44.837Z,80.90
2017-09-04T03:16:12.979Z,81.20
2017-09-04T03:21:41.131Z,81.00
2017-09-04T03:27:09.262Z,81.00
2017-09-04T03:32:37.399Z,81.00
2017-09-04T03:38:07.528Z,81.10
2017-09-04T03:43:35.686Z,81.20
2017-09-04T03:49:03.907Z,81.20
2017-09-04T03:54:35.370Z,81.20
2017-09-04T04:00:03.521Z,81.10
2017-09-04T04:05:31.636Z,81.00
2017-09-04T04:10:59.780Z,81.00
2017-09-04T04:16:27.910Z,81.10
2017-09-04T04:21:56.038Z,81.10
2017-09-04T04:27:24.168Z,81.20
2017-09-04T04:32:52.291Z,81.20
2017-09-04T04:38:20.447Z,81.10
2017-09-04T04:43:48.623Z,81.20
2017-09-04T04:49:16.749Z,81.20
2017-09-04T04:54:44.895Z,81.10
2017-09-04T05:00:13.033Z,81.20
2017-09-04T05:05:41.144Z,81.20
2017-09-04T05:11:09.267Z,81.30
2017-09-04T05:16:37.387Z,81.30
2017-09-04T05:22:05.524Z,81.30
2017-09-04T05:27:33.646Z,81.00
2017-09-04T05:33:01.775Z,81.00
2017-09-04T05:38:29.889Z,80.90
2017-09-04T05:43:58.023Z,80.80
2017-09-04T05:49:26.321Z,80.60
2017-09-04T05:54:54.519Z,80.50
2017-09-04T06:00:22.712Z,80.40
2017-09-04T06:05:50.846Z,80.30
2017-09-04T06:11:18.998Z,80.10
2017-09-04T06:16:48.144Z,80.20
2017-09-04T06:22:16.299Z,79.90
2017-09-04T06:27:44.466Z,80.40
2017-09-04T06:33:12.624Z,79.60
2017-09-04T06:38:40.765Z,78.20
2017-09-04T06:44:08.900Z,78.30
2017-09-04T06:49:37.095Z,78.20
2017-09-04T06:55:05.246Z,78.10
2017-09-04T07:00:33.416Z,78.00
2017-09-04T07:06:02.011Z,77.40
2017-09-04T07:11:30.170Z,77.40
2017-09-04T07:16:58.310Z,76.70
2017-09-04T07:22:26.441Z,76.90
2017-09-04T07:27:54.569Z,76.40
2017-09-04T07:33:22.718Z,76.20
2017-09-04T07:38:50.864Z,75.60
2017-09-04T07:44:19.042Z,74.90
2017-09-04T07:49:47.211Z,74.40
2017-09-04T07:55:15.336Z,74.60
2017-09-04T08:00:43.495Z,75.00
2017-09-04T08:06:11.663Z,74.30
2017-09-04T08:11:39.910Z,73.60
2017-09-04T08:17:08.051Z,72.60
2017-09-04T08:22:36.214Z,71.90
2017-09-04T08:28:04.364Z,71.30
2017-09-04T08:33:32.498Z,70.80
2017-09-04T08:39:00.654Z,70.60
2017-09-04T08:44:28.785Z,69.50
2017-09-04T08:49:56.944Z,69.50
2017-09-04T08:55:25.081Z,68.40
2017-09-04T09:00:53.236Z,67.90
2017-09-04T09:06:21.393Z,67.70
2017-09-04T09:11:49.542Z,67.70
2017-09-04T09:17:17.711Z,66.80
2017-09-04T09:22:45.984Z,66.50
2017-09-04T09:28:14.114Z,66.10
2017-09-04T09:33:42.296Z,66.20
2017-09-04T09:39:10.456Z,65.90
2017-09-04T09:44:38.594Z,64.60
2017-09-04T09:50:06.727Z,64.30
2017-09-04T09:55:34.876Z,64.20
2017-09-04T10:01:03.010Z,64.00
2017-09-04T10:06:31.150Z,65.50
2017-09-04T10:11:59.294Z,62.90
2017-09-04T10:17:27.430Z,63.60
2017-09-04T10:22:55.583Z,62.10
2017-09-04T10:28:23.736Z,62.70
2017-09-04T10:33:51.944Z,61.60
2017-09-04T10:39:20.096Z,59.60
2017-09-04T10:44:48.255Z,59.90
2017-09-04T10:50:16.408Z,58.20
2017-09-04T10:55:44.558Z,57.70
2017-09-04T11:01:12.702Z,56.90
2017-09-04T11:06:40.852Z,56.40
2017-09-04T11:12:08.995Z,55.40
2017-09-04T11:17:37.136Z,54.30
2017-09-04T11:23:05.290Z,54.10
2017-09-04T11:28:33.400Z,54.20
2017-09-04T11:34:01.538Z,53.80
2017-09-04T11:39:29.685Z,53.20
2017-09-04T11:44:57.844Z,52.30
2017-09-04T11:50:26.031Z,52.30
2017-09-04T11:55:56.582Z,52.00
2017-09-04T12:01:24.878Z,53.30
2017-09-04T12:06:53.018Z,52.20
2017-09-04T12:12:23.974Z,50.90
2017-09-04T12:17:52.260Z,52.80
2017-09-04T12:23:20.497Z,51.80
2017-09-04T12:28:48.666Z,51.60
2017-09-04T12:34:16.824Z,52.40
2017-09-04T12:39:44.966Z,52.20
2017-09-04T12:45:14.087Z,51.70
2017-09-04T12:50:42.237Z,51.20
2017-09-04T12:56:10.379Z,51.10
2017-09-04T13:01:38.546Z,49.60
2017-09-04T13:07:06.679Z,50.20
2017-09-04T13:12:34.839Z,49.20
2017-09-04T13:18:08.688Z,48.70
2017-09-04T13:23:44.485Z,47.80
2017-09-04T13:35:35.626Z,47.60
2017-09-04T13:47:14.626Z,45.70
2017-09-04T13:52:48.417Z,43.40
2017-09-04T14:04:33.047Z,41.60
2017-09-04T14:10:06.911Z,37.10
2017-09-04T14:15:40.707Z,35.20
2017-09-04T14:21:08.870Z,32.90
2017-09-04T14:26:37.024Z,33.50
2017-09-04T14:32:05.216Z,35.80
2017-09-04T14:37:33.385Z,34.10
2017-09-04T14:43:14.428Z,32.00
2017-09-04T14:48:42.573Z,29.60
2017-09-04T14:54:10.731Z,30.40
2017-09-04T14:59:38.922Z,30.30
2017-09-04T15:05:07.108Z,28.50
2017-09-04T15:10:35.342Z,31.00
2017-09-04T15:16:03.530Z,33.70
2017-09-04T15:21:31.698Z,35.90
2017-09-04T15:26:59.896Z,38.20
2017-09-04T15:32:28.089Z,39.90
2017-09-04T15:37:56.242Z,40.20
2017-09-04T15:43:24.392Z,40.50
2017-09-04T15:48:52.546Z,40.40
2017-09-04T15:54:20.704Z,41.60
2017-09-04T15:59:48.854Z,43.10
2017-09-04T16:05:17.046Z,43.50
2017-09-04T16:10:45.208Z,44.70
2017-09-04T16:16:15.188Z,44.40
2017-09-04T16:21:46.932Z,44.80
2017-09-04T16:33:25.650Z,45.20
2017-09-04T16:38:55.643Z,45.70
2017-09-04T16:44:31.335Z,46.50
2017-09-04T16:50:01.981Z,47.10
2017-09-04T16:55:30.629Z,47.60
2017-09-04T17:00:58.767Z,48.00
2017-09-04T17:06:27.914Z,46.90
2017-09-04T17:11:56.048Z,45.90
2017-09-04T17:17:24.652Z,45.70
2017-09-04T17:22:52.818Z,45.00
2017-09-04T17:28:24.367Z,45.70
2017-09-04T17:33:52.520Z,45.60
2017-09-04T17:39:20.665Z,45.90
2017-09-04T17:44:48.828Z,47.30
2017-09-04T17:50:16.981Z,46.80
2017-09-04T17:55:45.145Z,48.20
2017-09-04T18:01:13.378Z,48.30
2017-09-04T18:06:41.557Z,48.20
2017-09-04T18:12:10.109Z,49.30
2017-09-04T18:17:38.264Z,49.80
2017-09-04T18:23:06.571Z,50.00
2017-09-04T18:28:34.868Z,50.90
2017-09-04T18:34:03.114Z,52.60
2017-09-04T18:39:31.384Z,53.10
2017-09-04T18:44:59.520Z,53.80
2017-09-04T18:50:27.656Z,54.80
2017-09-04T18:55:55.822Z,55.40
2017-09-04T19:01:24.996Z,55.80
2017-09-04T19:06:53.130Z,56.30
2017-09-04T19:12:21.291Z,56.90
2017-09-04T19:17:49.517Z,57.60
2017-09-04T19:23:17.650Z,58.20
2017-09-04T19:28:45.803Z,58.70
2017-09-04T19:34:14.099Z,58.70
2017-09-04T19:39:42.251Z,58.80
2017-09-04T19:45:10.448Z,59.00
2017-09-04T19:50:38.600Z,59.30
2017-09-04T19:56:07.000Z,59.60
2017-09-04T20:01:35.125Z,59.90
2017-09-04T20:07:03.304Z,60.30
2017-09-04T20:12:35.336Z,61.00
2017-09-04T20:18:03.534Z,61.40
2017-09-04T20:23:31.665Z,61.70
2017-09-04T20:28:59.802Z,61.70
2017-09-04T20:34:27.968Z,62.00
2017-09-04T20:39:56.132Z,62.50
2017-09-04T20:45:24.270Z,62.70
2017-09-04T20:50:52.408Z,63.10
2017-09-04T20:56:20.593Z,63.90
2017-09-04T21:01:48.768Z,63.90
2017-09-04T21:07:16.894Z,64.40
2017-09-04T21:12:45.137Z,64.90
2017-09-04T21:18:13.345Z,65.20
2017-09-04T21:23:41.523Z,65.00
2017-09-04T21:29:09.678Z,65.70
2017-09-04T21:34:37.837Z,66.00
2017-09-04T21:40:06.022Z,66.30
2017-09-04T21:45:34.156Z,66.80
2017-09-04T21:51:03.061Z,66.90
2017-09-04T21:56:31.234Z,66.90
2017-09-04T22:01:59.378Z,67.50
2017-09-04T22:07:27.534Z,67.70
2017-09-04T22:12:55.676Z,67.90
2017-09-04T22:18:23.818Z,68.30
2017-09-04T22:23:51.947Z,68.80
2017-09-04T22:29:20.124Z,69.10
2017-09-04T22:34:48.282Z,69.40
2017-09-04T22:40:16.656Z,69.50
2017-09-04T22:45:44.931Z,69.90
2017-09-04T22:51:13.116Z,70.00
2017-09-04T22:56:41.271Z,70.30
2017-09-04T23:02:09.441Z,70.30
2017-09-04T23:07:37.605Z,70.60
2017-09-04T23:13:05.754Z,70.60
2017-09-04T23:18:33.887Z,70.80
2017-09-04T23:24:02.029Z,70.90
2017-09-04T23:29:30.281Z,71.10
2017-09-04T23:34:58.432Z,71.30
2017-09-04T23:40:26.575Z,71.40
2017-09-04T23:45:54.711Z,71.50
2017-09-04T23:51:22.976Z,71.70
2017-09-04T23:56:51.792Z,71.70
